Time;durP1;ratioP1;P1;durP2;ratioP2;P2;SDS_P1;SDS_P2;PMS_P1;PMS_P2;Temp;Humidity;BMP_temperature;BMP_pressure;BME280_temperature;BME280_humidity;BME280_pressure;Samples;Min_cycle;Max_cycle;Signal;HPM_P1;HPM_P2
2023/04/27 00:01:57;;;;;;;4.97;3.07;;;;;;;13.42;70.44;98433.56;5053230;28;20189;-92
2023/04/27 00:04:23;;;;;;;8.43;3.60;;;;;;;13.49;71.14;98440.03;5053244;28;20194;-92
2023/04/27 00:06:55;;;;;;;5.57;3.47;;;;;;;13.39;72.18;98433.78;5052973;28;20257;-93
2023/04/27 00:09:21;;;;;;;4.20;2.97;;;;;;;13.27;73.56;98433.88;5053408;28;20192;-92
2023/04/27 00:11:46;;;;;;;5.00;3.13;;;;;;;13.38;72.64;98437.38;5053189;28;20254;-93
2023/04/27 00:14:12;;;;;;;9.13;3.37;;;;;;;13.25;73.59;98446.31;5054170;28;20183;-92
2023/04/27 00:16:49;;;;;;;6.83;3.50;;;;;;;13.12;73.94;98445.53;5038007;28;20188;-92
2023/04/27 00:19:15;;;;;;;5.57;3.33;;;;;;;13.06;74.09;98453.84;5033307;28;20640;-90
2023/04/27 00:22:26;;;;;;;16.87;3.90;;;;;;;13.00;75.51;98457.75;5033916;28;20183;-92
2023/04/27 00:25:39;;;;;;;6.87;3.53;;;;;;;13.16;74.91;98452.22;5024660;28;20214;-94
2023/04/27 00:28:13;;;;;;;7.53;4.20;;;;;;;12.90;75.82;98457.59;4957877;28;20249;-93
2023/04/27 00:38:10;;;;;;;6.17;3.57;;;;;;;12.96;75.24;98469.47;5032596;28;20193;-92
2023/04/27 01:00:42;;;;;;;4.37;2.40;;;;;;;12.84;75.31;98489.59;5041844;28;20705;-93
2023/04/27 01:14:16;;;;;;;9.17;3.20;;;;;;;13.22;74.60;98514.94;554175;26;21271;-88
2023/04/27 01:16:51;;;;;;;;;;;;;;;;;;;;;
2023/04/27 01:19:19;;;;;;;5.63;3.67;;;;;;;13.21;75.02;98523.78;4974757;28;20601;-90
2023/04/27 01:21:48;;;;;;;5.20;3.00;;;;;;;13.23;75.28;98527.16;4957249;28;20560;-90
2023/04/27 01:24:22;;;;;;;7.37;3.20;;;;;;;13.28;75.26;98532.94;4974589;28;20175;-89
2023/04/27 01:26:50;;;;;;;5.20;3.23;;;;;;;13.32;74.95;98537.84;5003548;28;20618;-89
2023/04/27 01:29:33;;;;;;;6.23;3.40;;;;;;;13.32;74.78;98543.13;4976511;28;20184;-89
2023/04/27 01:32:15;;;;;;;5.37;2.93;;;;;;;13.35;74.86;98544.69;4961650;28;20643;-89
2023/04/27 01:34:43;;;;;;;4.83;2.83;;;;;;;13.45;74.39;98551.78;4977987;28;20170;-89
2023/04/27 01:37:13;;;;;;;5.53;2.70;;;;;;;13.48;74.80;98548.09;4961133;28;20584;-89
2023/04/27 01:39:38;;;;;;;7.57;3.07;;;;;;;13.45;75.05;98545.69;4960916;28;20241;-89
2023/04/27 01:42:50;;;;;;;5.97;3.27;;;;;;;13.51;74.19;98548.72;4978123;28;20198;-89
2023/04/27 01:45:18;;;;;;;8.03;2.67;;;;;;;13.54;73.62;98555.56;4950942;28;20256;-89
2023/04/27 01:47:55;;;;;;;4.73;2.10;;;;;;;13.54;73.69;98558.19;4976781;28;20211;-89
2023/04/27 01:51:02;;;;;;;4.37;2.43;;;;;;;13.52;73.81;98560.09;4978040;28;20548;-90
2023/04/27 04:32:18;;;;;;;;;;;;;;;;;;;;;
2023/04/27 04:35:15;;;;;;;;;;;;;;;;;;;;;
2023/04/27 04:37:43;;;;;;;3.37;1.70;;;;;;;14.26;71.34;98709.97;4861126;29;20199;-91
2023/04/27 04:40:12;;;;;;;3.80;2.00;;;;;;;14.32;71.71;98719.25;4844464;29;20211;-91
2023/04/27 04:42:39;;;;;;;2.93;1.57;;;;;;;14.38;71.13;98716.16;4860560;29;20190;-91
2023/04/27 04:45:19;;;;;;;;;;;;;;;;;;;;;
2023/04/27 04:47:48;;;;;;;4.50;2.10;;;;;;;14.42;71.40;98729.00;4956408;29;20204;-91
2023/04/27 04:50:13;;;;;;;4.00;2.17;;;;;;;14.45;71.09;98727.94;4938977;29;20185;-92
2023/04/27 04:52:39;;;;;;;3.63;1.90;;;;;;;14.50;70.14;98734.53;4967528;28;20197;-91
2023/04/27 04:55:05;;;;;;;3.70;2.20;;;;;;;14.51;70.27;98730.97;4975115;28;20183;-91
2023/04/27 04:57:30;;;;;;;3.30;1.60;;;;;;;14.57;69.60;98741.03;4975224;28;20176;-91
2023/04/27 04:59:56;;;;;;;2.80;1.77;;;;;;;14.57;69.66;98740.22;4958568;28;20223;-91
2023/04/27 05:02:22;;;;;;;4.53;2.13;;;;;;;14.58;69.53;98747.16;4974731;28;20234;-91
2023/04/27 05:04:47;;;;;;;4.83;2.40;;;;;;;14.59;69.96;98743.56;4967621;28;20220;-91
2023/04/27 05:07:13;;;;;;;4.70;2.90;;;;;;;14.58;69.95;98748.00;4993991;28;20266;-90
2023/04/27 05:09:39;;;;;;;4.00;2.10;;;;;;;14.62;70.18;98756.53;4977161;28;20558;-90
2023/04/27 05:12:05;;;;;;;3.63;2.10;;;;;;;14.69;70.54;98753.31;4994129;28;20184;-90
2023/04/27 05:14:31;;;;;;;4.40;2.40;;;;;;;14.76;70.51;98751.03;4992852;28;20614;-90
2023/04/27 05:16:57;;;;;;;4.10;2.13;;;;;;;14.80;69.99;98754.31;4976542;28;20180;-90
2023/04/27 05:19:23;;;;;;;4.47;2.40;;;;;;;14.86;70.63;98756.47;4973664;28;20188;-90
2023/04/27 05:21:49;;;;;;;4.37;2.27;;;;;;;14.94;71.51;98754.91;4957380;28;20645;-91
2023/04/27 05:24:14;;;;;;;3.97;1.37;;;;;;;15.16;70.16;98751.47;4974261;28;20184;-90
2023/04/27 05:26:42;;;;;;;2.50;1.03;;;;;;;15.28;69.81;98754.00;4956867;28;20263;-90
2023/04/27 05:29:07;;;;;;;1.57;0.67;;;;;;;15.52;68.09;98751.28;4957429;28;20216;-89
2023/04/27 05:31:33;;;;;;;2.70;1.13;;;;;;;15.70;66.23;98751.63;4974464;28;20263;-90
2023/04/27 05:34:00;;;;;;;1.07;0.50;;;;;;;15.80;65.04;98760.53;4957210;28;20184;-89
2023/04/27 05:36:27;;;;;;;1.57;0.57;;;;;;;16.02;65.93;98764.91;4974415;28;20188;-90
2023/04/27 05:39:15;;;;;;;0.77;0.47;;;;;;;16.30;64.73;98754.59;4968277;28;20202;-90
2023/04/27 05:41:41;;;;;;;1.47;0.50;;;;;;;16.60;61.51;98764.50;4976833;28;20282;-89
2023/04/27 05:44:16;;;;;;;;;;;;;;;;;;;;;
2023/04/27 09:19:16;;;;;;;2.80;1.67;;;;;;;18.28;49.28;98808.19;5620589;23;20230;-92
2023/04/27 09:29:57;;;;;;;3.50;1.80;;;;;;;18.40;48.94;98807.94;5012756;23;20240;-94
2023/04/27 09:36:02;;;;;;;3.60;1.70;;;;;;;18.77;44.07;98794.84;4936232;29;20630;-92
2023/04/27 09:51:58;;;;;;;5.13;2.23;;;;;;;19.73;42.81;98784.06;4793189;29;20308;-94
2023/04/27 09:58:13;;;;;;;;;;;;;;;;;;;;;
2023/04/27 10:07:33;;;;;;;3.60;1.70;;;;;;;20.36;43.30;98781.50;4847857;29;20203;-94
2023/04/27 10:10:28;;;;;;;6.53;2.30;;;;;;;20.68;42.49;98779.97;4902667;29;20276;-92
2023/04/27 10:17:18;;;;;;;4.60;2.90;;;;;;;20.74;42.93;98781.19;4862347;29;20191;-93
2023/04/27 10:31:05;;;;;;;7.23;2.90;;;;;;;19.83;42.73;98784.00;4745542;30;20241;-93
2023/04/27 10:33:53;;;;;;;7.60;3.50;;;;;;;20.00;43.46;98785.88;4789057;30;20207;-91
2023/04/27 10:36:48;;;;;;;6.83;3.27;;;;;;;20.58;43.46;98795.19;4802274;29;20743;-92
2023/04/27 10:43:07;;;;;;;6.57;3.50;;;;;;;21.12;39.45;98786.19;4847891;29;20189;-93
2023/04/27 10:53:40;;;;;;;4.83;3.23;;;;;;;21.07;40.99;98785.81;4818058;29;20566;-95
2023/04/27 11:00:56;;;;;;;;;;;;;;;;;;;;;
2023/04/27 11:07:58;;;;;;;7.77;3.20;;;;;;;20.55;42.08;98789.31;4753492;30;20204;-94
2023/04/27 11:14:36;;;;;;;8.10;3.23;;;;;;;20.38;41.07;98788.34;4807329;29;20308;-95
2023/04/27 11:17:12;;;;;;;6.33;2.97;;;;;;;19.65;44.05;98783.09;4771139;30;20225;-94
2023/04/27 11:20:22;;;;;;;;;;;;;;;;;;;;;
2023/04/27 11:23:00;;;;;;;6.60;3.20;;;;;;;20.19;44.83;98773.31;4824357;29;20193;-93
2023/04/27 11:26:13;;;;;;;6.77;3.03;;;;;;;20.92;42.79;98774.03;4806159;29;20636;-93
2023/04/27 11:29:04;;;;;;;6.20;3.10;;;;;;;21.38;40.46;98773.69;4814028;29;20233;-94
2023/04/27 11:39:41;;;;;;;8.13;3.47;;;;;;;21.10;40.72;98793.50;4806454;29;20625;-92
2023/04/27 11:42:33;;;;;;;8.10;3.10;;;;;;;21.18;40.90;98795.41;4820662;29;20186;-92
2023/04/27 11:45:06;;;;;;;7.10;3.50;;;;;;;21.50;40.67;98784.97;4804616;29;20190;-93
2023/04/27 11:47:39;;;;;;;5.43;3.27;;;;;;;21.73;40.74;98790.56;4805722;29;20225;-93
2023/04/27 11:54:32;;;;;;;;;;;;;;;;;;;;;
2023/04/27 11:57:07;;;;;;;6.83;3.47;;;;;;;21.83;39.10;98780.59;4791070;29;20198;-94
2023/04/27 11:59:53;;;;;;;5.60;3.20;;;;;;;21.75;39.76;98791.28;4790986;29;20273;-94
2023/04/27 12:02:39;;;;;;;8.27;3.50;;;;;;;21.81;39.15;98785.28;4802176;29;20282;-93
2023/04/27 12:08:33;;;;;;;6.07;3.20;;;;;;;21.63;39.35;98792.53;4823515;29;20239;-93
2023/04/27 12:15:09;;;;;;;7.27;2.90;;;;;;;21.77;40.89;98797.28;4796987;29;20191;-93
2023/04/27 12:21:37;;;;;;;5.17;2.17;;;;;;;21.63;39.83;98792.53;4897851;29;20197;-94
2023/04/27 12:24:08;;;;;;;4.33;2.23;;;;;;;21.48;39.16;98794.94;4837102;29;20664;-92
2023/04/27 12:35:36;;;;;;;;;;;;;;;;;;;;;
2023/04/27 12:37:38;;;;;;;7.93;3.70;;;;;;;21.18;40.39;98801.56;4789308;29;20217;-95
2023/04/27 12:41:06;;;;;;;;;;;;;;;;;;;;;
2023/04/27 12:48:15;;;;;;;;;;;;;;;;;;;;;
2023/04/27 12:51:17;;;;;;;;;;;;;;;;;;;;;
2023/04/27 12:58:23;;;;;;;7.60;3.63;;;;;;;20.27;42.66;98803.69;4909476;29;20651;-93
2023/04/27 13:04:40;;;;;;;8.00;4.07;;;;;;;20.53;41.79;98800.13;4841658;29;20200;-92
2023/04/27 13:18:09;;;;;;;;;;;;;;;;;;;;;
2023/04/27 13:21:09;;;;;;;7.87;4.17;;;;;;;20.09;42.25;98800.97;4769438;30;20221;-93
2023/04/27 13:24:29;;;;;;;;;;;;;;;;;;;;;
2023/04/27 14:17:18;;;;;;;;;;;;;;;;;;;;;
2023/04/27 14:23:58;;;;;;;5.37;3.00;;;;;;;19.74;43.13;98796.34;4652384;30;20255;-94
2023/04/27 14:26:24;;;;;;;8.93;4.00;;;;;;;19.67;42.77;98800.59;4629608;30;20197;-92
2023/04/27 14:46:57;;;;;;;;;;;;;;;;;;;;;
2023/04/27 14:57:52;;;;;;;;;;;;;;;;;;;;;
2023/04/27 15:12:04;;;;;;;5.27;2.43;;;;;;;20.28;38.66;98798.22;4654156;30;20218;-92
2023/04/27 15:15:26;;;;;;;5.93;2.63;;;;;;;20.32;39.27;98801.41;4667315;30;20204;-93
2023/04/27 15:18:43;;;;;;;5.83;2.20;;;;;;;20.29;39.61;98802.53;4659340;30;20202;-93
2023/04/27 15:21:08;;;;;;;5.40;2.83;;;;;;;20.42;38.41;98799.50;4683082;30;20547;-93
2023/04/27 15:41:19;;;;;;;9.87;2.90;;;;;;;19.92;38.96;98823.84;4683095;30;20219;-93
